Time;durP1;ratioP1;P1;durP2;ratioP2;P2;SDS_P1;SDS_P2;PMS_P1;PMS_P2;Temp;Humidity;BMP_temperature;BMP_pressure;BME280_temperature;BME280_humidity;BME280_pressure;Samples;Min_cycle;Max_cycle;Signal;HPM_P1;HPM_P2
2021/03/25 00:00:51;;;;;;;23.27;9.13;;;;;;;2.45;100.00;96773.59;5039109;28;20197;-73
2021/03/25 00:03:18;;;;;;;18.67;8.47;;;;;;;2.41;100.00;96766.13;5039332;28;20288;-73
2021/03/25 00:05:45;;;;;;;15.77;7.70;;;;;;;2.31;100.00;96769.56;5038731;28;20233;-73
2021/03/25 00:08:14;;;;;;;18.40;8.60;;;;;;;2.30;100.00;96765.28;5038969;28;20205;-73
2021/03/25 00:10:41;;;;;;;19.07;8.30;;;;;;;2.20;100.00;96777.31;5039096;28;20221;-73
2021/03/25 00:13:08;;;;;;;17.50;8.30;;;;;;;2.22;100.00;96775.44;5039246;28;20729;-73
2021/03/25 00:15:35;;;;;;;18.43;8.10;;;;;;;2.18;100.00;96774.00;5038354;28;20221;-73
2021/03/25 00:18:01;;;;;;;16.43;8.13;;;;;;;1.98;100.00;96769.44;5039688;28;20197;-73
2021/03/25 00:20:28;;;;;;;19.33;8.77;;;;;;;1.84;100.00;96769.63;5038508;28;20286;-73
2021/03/25 00:22:54;;;;;;;16.83;8.57;;;;;;;1.93;100.00;96758.53;5038858;28;20569;-73
2021/03/25 00:25:25;;;;;;;19.27;8.77;;;;;;;1.93;100.00;96763.75;5037623;28;20225;-73
2021/03/25 00:27:51;;;;;;;18.87;9.07;;;;;;;1.98;100.00;96761.63;5038728;28;20254;-74
2021/03/25 00:30:20;;;;;;;25.23;10.07;;;;;;;1.94;100.00;96757.63;5038066;28;20204;-73
2021/03/25 00:32:46;;;;;;;20.87;9.10;;;;;;;2.01;100.00;96754.47;5038275;28;20224;-73
2021/03/25 00:35:13;;;;;;;18.73;8.63;;;;;;;2.10;100.00;96765.91;5037192;28;20782;-73
2021/03/25 00:37:40;;;;;;;21.90;9.27;;;;;;;2.10;100.00;96760.72;5037534;28;20214;-73
2021/03/25 00:40:08;;;;;;;18.67;8.47;;;;;;;2.11;100.00;96762.38;5038184;28;20220;-73
2021/03/25 00:42:35;;;;;;;17.53;8.63;;;;;;;2.04;100.00;96753.41;5039007;28;20209;-72
2021/03/25 00:45:04;;;;;;;18.73;8.70;;;;;;;2.00;100.00;96757.19;5037615;28;20250;-73
2021/03/25 00:47:30;;;;;;;16.70;8.53;;;;;;;2.00;100.00;96757.19;5038275;28;20212;-73
2021/03/25 00:49:56;;;;;;;15.80;8.60;;;;;;;1.92;100.00;96746.50;5038678;28;20240;-73
2021/03/25 00:52:22;;;;;;;19.63;8.93;;;;;;;1.90;100.00;96749.22;5038194;28;20332;-73
2021/03/25 00:54:48;;;;;;;16.13;8.47;;;;;;;1.83;100.00;96747.16;5038293;28;20201;-73
2021/03/25 00:57:14;;;;;;;17.33;8.53;;;;;;;1.82;100.00;96735.97;5037974;28;20556;-73
2021/03/25 00:59:41;;;;;;;17.17;8.57;;;;;;;1.82;100.00;96746.34;5038378;28;20201;-73
2021/03/25 01:02:07;;;;;;;17.93;8.03;;;;;;;1.90;100.00;96748.38;5038241;28;20208;-73
2021/03/25 01:04:32;;;;;;;17.30;8.33;;;;;;;1.78;100.00;96744.06;5038392;28;20201;-73
2021/03/25 01:06:58;;;;;;;18.00;8.13;;;;;;;1.75;100.00;96738.28;5038113;28;20708;-73
2021/03/25 01:09:27;;;;;;;16.57;8.67;;;;;;;1.67;100.00;96740.59;5037723;28;20259;-72
2021/03/25 01:11:54;;;;;;;17.77;8.37;;;;;;;1.65;100.00;96742.50;5038284;28;20232;-73
2021/03/25 01:14:22;;;;;;;17.70;8.10;;;;;;;1.64;100.00;96740.81;5038797;28;20270;-73
2021/03/25 01:16:51;;;;;;;15.70;8.03;;;;;;;1.57;100.00;96735.25;5038231;28;20450;-73
2021/03/25 01:19:21;;;;;;;17.27;7.93;;;;;;;1.54;100.00;96730.28;5038597;28;20291;-73
2021/03/25 01:21:47;;;;;;;16.27;7.73;;;;;;;1.42;100.00;96735.53;5039183;28;20208;-73
2021/03/25 01:24:13;;;;;;;21.17;8.53;;;;;;;1.38;100.00;96734.91;5038010;28;20213;-73
2021/03/25 01:26:40;;;;;;;19.17;7.47;;;;;;;1.31;100.00;96733.72;5037898;28;20330;-73
2021/03/25 01:29:07;;;;;;;19.13;7.80;;;;;;;1.35;100.00;96731.69;5037662;28;20216;-74
2021/03/25 01:31:33;;;;;;;16.90;8.30;;;;;;;1.34;100.00;96728.28;5038949;28;20574;-73
2021/03/25 01:34:00;;;;;;;16.30;7.93;;;;;;;1.32;100.00;96725.00;5038595;28;20216;-73
2021/03/25 01:36:27;;;;;;;18.93;8.30;;;;;;;1.30;100.00;96721.66;5037291;28;20225;-73
2021/03/25 01:38:53;;;;;;;16.83;8.20;;;;;;;1.33;100.00;96711.03;5037956;28;20205;-73
2021/03/25 01:41:19;;;;;;;16.10;8.20;;;;;;;1.34;100.00;96717.91;5038476;28;20205;-73
2021/03/25 01:43:46;;;;;;;15.10;8.13;;;;;;;1.35;100.00;96714.38;5037940;28;20205;-73
2021/03/25 01:46:19;;;;;;;16.10;8.33;;;;;;;1.27;100.00;96716.69;5038544;28;20646;-73
2021/03/25 01:48:48;;;;;;;23.50;9.10;;;;;;;1.26;100.00;96715.03;5041619;28;20206;-73
2021/03/25 01:51:26;;;;;;;18.80;8.37;;;;;;;1.25;100.00;96707.38;5041473;28;20208;-73
2021/03/25 01:54:18;;;;;;;17.10;8.47;;;;;;;1.27;100.00;96706.31;5041419;28;20236;-74
2021/03/25 01:57:10;;;;;;;16.10;7.60;;;;;;;1.25;100.00;96705.59;5041152;28;20221;-73
2021/03/25 02:00:03;;;;;;;21.70;8.80;;;;;;;1.24;100.00;96706.50;5042224;28;20212;-73
2021/03/25 02:02:36;;;;;;;19.00;8.40;;;;;;;1.17;100.00;96707.06;5042086;28;20740;-73
2021/03/25 02:05:14;;;;;;;16.17;8.13;;;;;;;1.18;100.00;96700.13;5041103;28;20205;-73
2021/03/25 02:07:52;;;;;;;17.40;7.67;;;;;;;1.04;100.00;96702.88;5041988;28;20210;-73
2021/03/25 02:10:25;;;;;;;19.30;8.47;;;;;;;1.05;100.00;96699.34;5041633;28;20223;-73
2021/03/25 02:12:58;;;;;;;20.60;7.80;;;;;;;1.07;100.00;96700.03;5041881;28;20235;-73
2021/03/25 02:15:35;;;;;;;19.43;7.83;;;;;;;0.97;100.00;96696.44;5040670;28;20221;-73
2021/03/25 02:18:05;;;;;;;16.33;7.73;;;;;;;0.89;100.00;96689.22;5041779;28;20575;-73
2021/03/25 02:21:05;;;;;;;18.67;9.00;;;;;;;0.87;100.00;96685.88;5041781;28;20278;-73
2021/03/25 02:23:55;;;;;;;18.60;7.73;;;;;;;0.88;100.00;96692.75;5041778;28;20843;-73
2021/03/25 02:26:28;;;;;;;16.53;7.70;;;;;;;0.87;100.00;96685.06;5041412;28;20232;-73
2021/03/25 02:29:20;;;;;;;16.90;7.73;;;;;;;0.84;100.00;96691.31;5041445;28;20209;-73
2021/03/25 02:31:53;;;;;;;15.03;7.03;;;;;;;0.90;100.00;96688.25;5014681;28;20215;-73
2021/03/25 02:34:22;;;;;;;15.67;7.60;;;;;;;0.90;100.00;96687.44;5042301;28;20213;-73
2021/03/25 02:36:52;;;;;;;20.13;8.13;;;;;;;0.91;100.00;96683.91;5040757;28;20235;-73
2021/03/25 02:39:24;;;;;;;16.87;7.80;;;;;;;0.93;100.00;96693.25;5041849;28;20207;-73
2021/03/25 02:41:54;;;;;;;17.33;7.97;;;;;;;0.97;100.00;96689.50;5042442;28;20209;-73
2021/03/25 02:44:27;;;;;;;16.97;8.50;;;;;;;0.93;100.00;96689.81;5041873;28;20212;-73
2021/03/25 02:46:58;;;;;;;17.93;7.57;;;;;;;0.93;100.00;96684.63;5041199;28;20240;-73
2021/03/25 02:49:28;;;;;;;15.53;7.90;;;;;;;0.94;100.00;96692.31;5041704;28;20211;-74
2021/03/25 02:52:14;;;;;;;19.63;8.10;;;;;;;1.00;100.00;96697.06;5041724;28;20209;-73
2021/03/25 02:54:40;;;;;;;20.93;7.93;;;;;;;0.92;100.00;96693.38;5041523;28;20215;-73
2021/03/25 02:57:12;;;;;;;16.47;7.87;;;;;;;0.85;100.00;96692.13;5040031;28;20228;-73
2021/03/25 02:59:40;;;;;;;15.77;8.30;;;;;;;0.84;100.00;96690.47;5041278;28;20267;-73
2021/03/25 03:02:15;;;;;;;16.10;8.00;;;;;;;0.91;100.00;96694.28;5040982;28;20247;-73
2021/03/25 03:04:44;;;;;;;15.73;7.70;;;;;;;0.94;100.00;96688.88;5041288;28;20215;-73
2021/03/25 03:07:14;;;;;;;17.03;8.13;;;;;;;0.95;100.00;96688.75;5041075;28;20228;-73
2021/03/25 03:09:44;;;;;;;18.73;8.13;;;;;;;0.98;100.00;96687.72;5041663;28;20219;-74
2021/03/25 03:12:15;;;;;;;16.07;8.33;;;;;;;1.05;100.00;96689.78;5041334;28;20223;-73
2021/03/25 03:14:45;;;;;;;21.20;8.20;;;;;;;1.14;100.00;96690.91;5041791;28;20212;-73
2021/03/25 03:17:16;;;;;;;22.40;8.07;;;;;;;1.15;100.00;96689.97;5040460;28;20232;-73
2021/03/25 03:19:47;;;;;;;18.53;8.10;;;;;;;1.22;100.00;96685.06;5041178;28;20213;-73
2021/03/25 03:22:13;;;;;;;19.57;7.53;;;;;;;1.19;100.00;96689.63;5041217;28;20207;-73
2021/03/25 03:24:39;;;;;;;15.70;8.13;;;;;;;1.19;100.00;96687.84;5040929;28;20203;-73
2021/03/25 03:27:12;;;;;;;19.03;7.90;;;;;;;1.17;100.00;96690.66;5040101;28;20224;-73
2021/03/25 03:29:41;;;;;;;16.17;6.93;;;;;;;1.18;100.00;96689.75;5040499;28;20708;-74
2021/03/25 03:32:16;;;;;;;19.40;7.50;;;;;;;1.19;100.00;96687.84;5039393;28;21108;-73
2021/03/25 03:34:46;;;;;;;16.23;7.30;;;;;;;1.12;100.00;96691.00;5040321;28;20216;-73
2021/03/25 03:37:16;;;;;;;11.13;6.43;;;;;;;1.16;100.00;96686.41;5039938;28;20224;-74
2021/03/25 03:39:42;;;;;;;13.77;7.30;;;;;;;1.10;100.00;96682.50;5041173;28;20211;-73
2021/03/25 03:42:12;;;;;;;14.07;6.93;;;;;;;1.11;100.00;96683.31;5040228;28;20197;-73
2021/03/25 03:44:42;;;;;;;15.17;7.40;;;;;;;1.05;100.00;96688.97;5039917;28;20999;-73
2021/03/25 03:47:10;;;;;;;14.80;6.60;;;;;;;1.02;100.00;96694.34;5039472;28;20220;-73
2021/03/25 03:49:40;;;;;;;14.37;6.83;;;;;;;0.95;100.00;96685.34;5040337;28;20204;-73
2021/03/25 03:52:12;;;;;;;15.37;7.30;;;;;;;0.81;100.00;96682.91;5039661;28;21315;-73
2021/03/25 03:54:38;;;;;;;14.23;6.83;;;;;;;0.84;100.00;96685.25;5040381;28;20211;-73
2021/03/25 03:57:12;;;;;;;22.50;7.47;;;;;;;0.85;100.00;96689.53;5039786;28;20229;-73
2021/03/25 03:59:47;;;;;;;15.70;7.17;;;;;;;0.89;100.00;96689.22;5039586;28;20201;-73
2021/03/25 04:02:20;;;;;;;15.30;7.20;;;;;;;0.73;100.00;96686.03;5039768;28;20202;-73
2021/03/25 04:04:50;;;;;;;15.77;6.90;;;;;;;0.74;100.00;96684.28;5039640;28;20209;-73
2021/03/25 04:07:23;;;;;;;12.67;6.50;;;;;;;0.66;100.00;96689.16;5038461;28;20208;-73
2021/03/25 04:09:52;;;;;;;15.47;7.50;;;;;;;0.72;100.00;96686.94;5038025;28;20587;-73
2021/03/25 04:12:23;;;;;;;14.27;7.03;;;;;;;0.75;100.00;96691.94;5039291;28;20224;-73
2021/03/25 04:14:54;;;;;;;15.10;6.93;;;;;;;0.79;100.00;96687.34;5039133;28;20259;-73
2021/03/25 04:17:26;;;;;;;15.33;6.30;;;;;;;0.74;100.00;96685.09;5038305;28;20642;-73
2021/03/25 04:19:54;;;;;;;14.10;6.57;;;;;;;0.71;100.00;96684.47;5038654;28;20212;-73
2021/03/25 04:22:25;;;;;;;16.37;7.03;;;;;;;0.70;100.00;96693.19;5038866;28;20204;-73
2021/03/25 04:24:55;;;;;;;15.20;6.77;;;;;;;0.78;100.00;96690.91;5038679;28;20205;-73
2021/03/25 04:27:26;;;;;;;15.60;6.90;;;;;;;0.76;100.00;96693.63;5038027;28;20208;-73
2021/03/25 04:29:58;;;;;;;11.27;6.63;;;;;;;0.77;100.00;96690.06;5038198;28;20243;-73
2021/03/25 04:32:25;;;;;;;14.97;7.00;;;;;;;0.80;100.00;96692.47;5038095;28;20232;-73
2021/03/25 04:34:52;;;;;;;17.83;7.33;;;;;;;0.74;100.00;96682.50;5038158;28;20212;-73
2021/03/25 04:37:19;;;;;;;13.77;6.63;;;;;;;0.75;100.00;96688.50;5037254;28;20197;-74
2021/03/25 04:39:48;;;;;;;17.80;7.47;;;;;;;0.72;100.00;96680.94;5037888;28;20205;-74
2021/03/25 04:42:16;;;;;;;15.97;7.73;;;;;;;0.77;100.00;96686.66;5037936;28;20469;-73
2021/03/25 04:44:46;;;;;;;18.00;7.07;;;;;;;0.70;100.00;96688.00;5038148;28;20209;-73
2021/03/25 04:47:17;;;;;;;16.20;6.83;;;;;;;0.62;100.00;96693.75;5037438;28;20286;-73
2021/03/25 04:49:47;;;;;;;12.93;6.20;;;;;;;0.56;100.00;96690.75;5038061;28;20211;-73
2021/03/25 04:52:17;;;;;;;14.73;6.70;;;;;;;0.57;100.00;96694.97;5037936;28;20208;-73
2021/03/25 04:54:43;;;;;;;18.07;7.40;;;;;;;0.56;100.00;96695.94;5037812;28;20208;-73
2021/03/25 04:57:22;;;;;;;19.20;7.50;;;;;;;0.55;100.00;96683.91;5036862;28;20232;-73
2021/03/25 04:59:48;;;;;;;14.00;7.10;;;;;;;0.40;100.00;96684.94;5038374;28;20314;-73
2021/03/25 05:02:14;;;;;;;18.40;7.37;;;;;;;0.37;100.00;96687.75;5037188;28;20676;-73
2021/03/25 05:04:44;;;;;;;13.63;7.27;;;;;;;0.40;100.00;96684.94;5037343;28;20219;-73
2021/03/25 05:07:17;;;;;;;16.13;6.87;;;;;;;0.48;100.00;96687.84;5037091;28;20230;-73
2021/03/25 05:09:43;;;;;;;11.93;6.27;;;;;;;0.46;100.00;96679.34;5037189;28;20212;-73
2021/03/25 05:12:14;;;;;;;20.10;7.30;;;;;;;0.51;100.00;96682.44;5037260;28;20293;-73
2021/03/25 05:14:42;;;;;;;17.13;7.07;;;;;;;0.25;100.00;96685.16;5037629;28;20201;-73
2021/03/25 05:17:31;;;;;;;19.60;6.80;;;;;;;0.20;100.00;96693.22;5036385;28;20282;-73
2021/03/25 05:20:07;;;;;;;16.20;7.43;;;;;;;0.16;100.00;96688.38;5038154;28;20218;-73
2021/03/25 05:22:39;;;;;;;18.23;6.63;;;;;;;0.11;100.00;96696.44;5041180;28;20266;-73
2021/03/25 05:25:08;;;;;;;13.80;6.13;;;;;;;0.19;100.00;96701.97;5040340;28;20202;-73
2021/03/25 05:27:42;;;;;;;13.83;5.97;;;;;;;0.27;100.00;96704.03;5040889;28;20849;-73
2021/03/25 05:30:13;;;;;;;14.40;6.20;;;;;;;0.34;100.00;96700.91;5041113;28;20226;-73
2021/03/25 05:32:45;;;;;;;17.90;6.87;;;;;;;0.52;100.00;96707.41;5040395;28;20225;-73
2021/03/25 05:35:16;;;;;;;12.73;6.67;;;;;;;0.53;100.00;96700.50;5039654;28;20578;-73
2021/03/25 05:37:43;;;;;;;17.77;6.53;;;;;;;0.63;100.00;96700.56;5040846;28;20205;-73
2021/03/25 05:40:16;;;;;;;22.63;7.13;;;;;;;0.68;100.00;96705.44;5040746;28;20209;-73
2021/03/25 05:42:52;;;;;;;15.67;6.47;;;;;;;0.73;100.00;96711.97;5040464;28;20680;-74
2021/03/25 05:45:30;;;;;;;17.67;7.90;;;;;;;0.89;100.00;96704.78;5039865;28;20669;-73
2021/03/25 05:48:14;;;;;;;15.87;7.23;;;;;;;0.95;100.00;96711.28;5040924;28;20212;-73
2021/03/25 05:50:49;;;;;;;21.53;7.07;;;;;;;1.01;100.00;96708.28;5039866;28;20230;-74
2021/03/25 05:53:27;;;;;;;15.07;7.13;;;;;;;1.10;100.00;96713.63;5040194;28;20234;-74
2021/03/25 05:56:04;;;;;;;18.97;7.43;;;;;;;1.10;100.00;96707.63;5039737;28;20231;-74
2021/03/25 05:58:38;;;;;;;15.07;6.80;;;;;;;1.22;100.00;96718.78;5039979;28;20211;-74
2021/03/25 06:01:20;;;;;;;15.93;7.70;;;;;;;1.31;100.00;96712.94;5040009;28;20208;-74
2021/03/25 06:03:58;;;;;;;17.60;7.33;;;;;;;1.33;100.00;96708.44;5042083;28;20695;-75
2021/03/25 06:06:34;;;;;;;17.17;7.93;;;;;;;1.47;100.00;96718.66;5041875;28;20299;-75
2021/03/25 06:09:08;;;;;;;18.13;7.80;;;;;;;1.57;100.00;96724.06;5042393;28;20216;-75
2021/03/25 06:11:44;;;;;;;18.10;7.33;;;;;;;1.55;100.00;96721.53;5042367;28;20698;-75
2021/03/25 06:14:24;;;;;;;19.60;7.40;;;;;;;1.69;100.00;96716.16;5042174;28;20229;-75
2021/03/25 06:17:07;;;;;;;16.73;7.33;;;;;;;1.82;100.00;96725.56;5041384;28;20228;-75
2021/03/25 06:19:55;;;;;;;20.63;7.13;;;;;;;1.89;100.00;96721.56;5042308;28;20221;-75
2021/03/25 06:22:28;;;;;;;19.67;7.70;;;;;;;1.98;100.00;96725.25;5041464;28;20209;-75
2021/03/25 06:25:07;;;;;;;13.20;6.80;;;;;;;2.15;100.00;96725.69;5041112;28;20227;-75
2021/03/25 06:27:45;;;;;;;16.60;6.90;;;;;;;2.27;100.00;96723.94;5040966;28;20602;-74
2021/03/25 06:30:19;;;;;;;21.00;7.57;;;;;;;2.41;100.00;96729.72;5041468;28;20204;-75
2021/03/25 06:32:52;;;;;;;17.67;7.50;;;;;;;2.56;100.00;96724.19;5040017;28;21132;-75
2021/03/25 06:35:26;;;;;;;17.63;7.10;;;;;;;2.64;100.00;96731.41;5040097;28;20240;-75
2021/03/25 06:37:57;;;;;;;17.30;7.20;;;;;;;2.73;100.00;96731.53;5041567;28;20568;-75
2021/03/25 06:40:27;;;;;;;16.70;7.60;;;;;;;2.80;100.00;96737.94;5041125;28;20691;-75
2021/03/25 06:42:59;;;;;;;17.17;6.90;;;;;;;2.96;100.00;96741.00;5041322;28;20567;-75
2021/03/25 06:45:30;;;;;;;24.60;7.67;;;;;;;3.08;100.00;96742.63;5040600;28;20229;-75
2021/03/25 06:48:02;;;;;;;15.00;7.17;;;;;;;3.12;100.00;96744.06;5041448;28;20201;-74
2021/03/25 06:50:33;;;;;;;17.30;7.00;;;;;;;3.24;100.00;96749.13;5041051;28;20319;-74
2021/03/25 06:53:11;;;;;;;17.07;6.53;;;;;;;3.46;100.00;96748.25;5041293;28;20233;-75
2021/03/25 06:55:37;;;;;;;13.77;6.33;;;;;;;3.53;100.00;96749.44;5039948;28;20302;-74
2021/03/25 06:58:07;;;;;;;16.50;5.87;;;;;;;3.69;97.83;96746.31;5040363;28;20209;-74
2021/03/25 07:00:40;;;;;;;12.37;5.30;;;;;;;3.79;97.17;96752.44;5041185;28;20213;-74
2021/03/25 07:03:12;;;;;;;17.30;6.07;;;;;;;3.89;95.82;96742.09;5040194;28;20216;-74
2021/03/25 07:05:39;;;;;;;20.47;6.77;;;;;;;3.99;96.52;96749.03;5039108;28;20225;-74
2021/03/25 07:08:14;;;;;;;19.40;7.07;;;;;;;4.06;95.85;96752.81;5039929;28;20258;-75
2021/03/25 07:10:40;;;;;;;20.40;7.40;;;;;;;4.13;94.48;96751.34;5039570;28;20213;-74
2021/03/25 07:13:08;;;;;;;21.43;6.50;;;;;;;4.17;94.05;96752.75;5039884;28;20229;-75
2021/03/25 07:15:37;;;;;;;36.33;9.87;;;;;;;4.25;93.76;96755.53;5039513;28;20229;-74
2021/03/25 07:18:05;;;;;;;24.27;8.00;;;;;;;4.36;93.67;96748.47;5039579;28;20205;-74
2021/03/25 07:20:34;;;;;;;19.60;5.80;;;;;;;4.53;92.18;96747.09;5039685;28;21089;-74
2021/03/25 07:23:07;;;;;;;12.60;5.47;;;;;;;4.80;90.47;96737.78;5040336;28;20288;-74
2021/03/25 07:25:35;;;;;;;16.43;6.10;;;;;;;4.88;90.74;96741.38;5039274;28;20236;-74
2021/03/25 07:28:02;;;;;;;13.57;5.20;;;;;;;4.97;90.23;96743.19;5039392;28;20205;-74
2021/03/25 07:30:43;;;;;;;12.27;4.90;;;;;;;5.05;90.19;96737.31;5039755;28;20231;-74
2021/03/25 07:33:11;;;;;;;16.00;5.87;;;;;;;5.08;90.07;96735.28;5039085;28;20228;-74
2021/03/25 07:35:40;;;;;;;13.03;6.10;;;;;;;5.20;89.80;96729.00;5037983;28;21081;-74
2021/03/25 07:38:21;;;;;;;11.83;5.37;;;;;;;5.41;88.29;96739.38;5039443;28;20571;-74
2021/03/25 07:40:48;;;;;;;10.43;5.23;;;;;;;5.43;87.92;96734.84;5039407;28;20262;-74
2021/03/25 07:43:20;;;;;;;11.03;5.23;;;;;;;5.52;86.65;96735.69;5039088;28;20205;-74
2021/03/25 07:45:47;;;;;;;13.23;5.57;;;;;;;5.58;87.09;96732.53;5037398;28;20221;-74
2021/03/25 07:48:19;;;;;;;13.63;5.43;;;;;;;5.78;85.71;96743.88;5039164;28;20209;-74
2021/03/25 07:50:47;;;;;;;16.37;5.87;;;;;;;5.83;86.32;96741.69;5039670;28;20201;-73
2021/03/25 07:53:21;;;;;;;11.87;5.80;;;;;;;5.91;86.21;96744.47;5039645;28;20232;-74
2021/03/25 07:55:47;;;;;;;13.77;6.27;;;;;;;6.05;86.74;96737.84;5039230;28;20312;-74
2021/03/25 07:58:33;;;;;;;15.50;6.03;;;;;;;6.24;86.45;96745.69;5038925;28;20778;-74
2021/03/25 08:01:10;;;;;;;10.93;5.77;;;;;;;6.42;84.14;96740.59;5039256;28;20208;-74
2021/03/25 08:03:47;;;;;;;17.00;5.73;;;;;;;6.65;83.86;96742.75;5039726;28;20205;-74
2021/03/25 08:06:24;;;;;;;13.77;5.93;;;;;;;6.85;84.07;96739.13;5038848;28;20228;-74
2021/03/25 08:09:02;;;;;;;13.87;6.77;;;;;;;6.99;84.13;96741.28;5039275;28;20217;-74
2021/03/25 08:11:29;;;;;;;12.33;5.73;;;;;;;7.12;82.12;96739.16;5040392;28;20201;-74
2021/03/25 08:13:58;;;;;;;11.67;5.17;;;;;;;7.21;81.51;96743.53;5038204;28;20221;-74
2021/03/25 08:16:27;;;;;;;13.83;6.13;;;;;;;7.27;81.35;96744.59;5036347;28;20228;-73
2021/03/25 08:19:22;;;;;;;11.50;5.60;;;;;;;7.55;80.66;96746.28;5037031;28;20706;-74
2021/03/25 08:22:04;;;;;;;15.13;6.33;;;;;;;7.76;81.06;96752.06;5037931;28;20209;-74
2021/03/25 08:25:10;;;;;;;13.50;6.33;;;;;;;7.95;78.97;96744.88;5037081;28;20247;-74
2021/03/25 08:27:49;;;;;;;14.33;6.33;;;;;;;8.10;79.21;96738.16;5032365;28;20255;-74
2021/03/25 08:30:39;;;;;;;14.97;6.40;;;;;;;8.19;77.36;96745.16;5037229;28;20212;-74
2021/03/25 08:33:18;;;;;;;13.60;6.70;;;;;;;8.39;77.62;96748.44;5037059;28;20340;-74
2021/03/25 08:35:52;;;;;;;21.07;7.80;;;;;;;8.49;76.50;96744.78;5036801;28;20239;-74
2021/03/25 08:38:33;;;;;;;16.27;6.27;;;;;;;8.58;76.05;96742.06;5037556;28;20204;-74
2021/03/25 08:41:03;;;;;;;17.20;6.00;;;;;;;8.72;75.66;96740.69;5037443;28;20212;-74
2021/03/25 08:43:33;;;;;;;15.00;5.73;;;;;;;8.95;76.19;96741.81;5037125;28;20633;-74
2021/03/25 08:46:06;;;;;;;13.33;6.13;;;;;;;9.07;73.83;96741.41;5036405;28;20221;-74
2021/03/25 08:48:40;;;;;;;14.43;6.13;;;;;;;9.08;72.38;96743.88;5036699;28;20201;-74
2021/03/25 08:51:12;;;;;;;17.73;6.73;;;;;;;9.11;73.20;96737.47;5037575;28;20215;-75
2021/03/25 08:53:45;;;;;;;11.30;4.93;;;;;;;9.16;72.47;96743.94;5037683;28;21063;-74
2021/03/25 08:56:25;;;;;;;15.30;6.50;;;;;;;9.34;72.94;96739.44;5035784;28;21029;-75
2021/03/25 08:58:56;;;;;;;11.23;5.00;;;;;;;9.37;72.79;96740.94;5037415;28;20212;-74
2021/03/25 09:01:29;;;;;;;19.03;7.10;;;;;;;9.55;72.62;96731.94;5036867;28;21092;-74
2021/03/25 09:04:00;;;;;;;15.50;6.10;;;;;;;9.59;72.08;96732.47;5037270;28;20208;-74
2021/03/25 09:06:29;;;;;;;15.17;6.20;;;;;;;9.67;71.30;96740.38;5036507;28;20605;-74
2021/03/25 09:09:02;;;;;;;10.40;5.20;;;;;;;9.91;69.88;96736.00;5036920;28;20213;-74
2021/03/25 09:11:29;;;;;;;14.23;5.63;;;;;;;9.99;69.00;96736.91;5037090;28;20208;-75
2021/03/25 09:13:58;;;;;;;16.37;6.13;;;;;;;10.17;70.89;96736.75;5037539;28;21140;-75
2021/03/25 09:16:27;;;;;;;14.63;6.43;;;;;;;10.34;69.49;96731.34;5036210;28;20216;-75
2021/03/25 09:18:55;;;;;;;12.73;5.70;;;;;;;10.44;68.04;96732.00;5036874;28;20571;-75
2021/03/25 09:21:24;;;;;;;15.80;6.90;;;;;;;10.53;67.84;96726.56;5036637;28;20743;-74
2021/03/25 09:24:12;;;;;;;16.40;6.60;;;;;;;10.78;66.56;96719.47;5037139;28;20201;-75
2021/03/25 09:26:46;;;;;;;13.67;6.07;;;;;;;10.85;65.91;96723.09;5036178;28;20225;-75
2021/03/25 09:29:13;;;;;;;10.67;4.77;;;;;;;10.93;65.62;96722.09;5036892;28;20205;-75
2021/03/25 09:31:42;;;;;;;13.87;6.27;;;;;;;11.00;66.27;96720.44;5036977;28;20677;-74
2021/03/25 09:34:51;;;;;;;14.63;6.13;;;;;;;11.11;64.74;96717.44;5036536;28;20324;-75
2021/03/25 09:37:21;;;;;;;13.03;6.63;;;;;;;11.26;64.56;96721.00;5021077;28;20212;-75
2021/03/25 09:40:28;;;;;;;14.33;6.70;;;;;;;11.49;65.06;96715.84;5035184;28;20204;-75
2021/03/25 09:43:28;;;;;;;16.23;7.00;;;;;;;11.70;62.45;96720.38;5036366;28;20652;-75
2021/03/25 09:45:55;;;;;;;14.90;6.13;;;;;;;11.70;62.79;96720.38;5036286;28;20272;-75
2021/03/25 09:48:26;;;;;;;11.03;6.20;;;;;;;11.72;61.49;96723.69;5036642;28;20211;-74
2021/03/25 09:51:11;;;;;;;12.83;5.73;;;;;;;11.68;60.88;96722.41;5036905;28;20201;-75
2021/03/25 09:53:47;;;;;;;16.88;6.63;;;;;;;11.86;61.37;96719.50;5036962;28;20232;-75
2021/03/25 09:56:32;;;;;;;15.63;6.97;;;;;;;12.02;60.57;96719.41;5036133;28;20231;-75
2021/03/25 09:58:58;;;;;;;17.02;6.88;;;;;;;12.12;59.25;96720.00;5037010;28;20290;-74
2021/03/25 10:01:51;;;;;;;14.95;7.03;;;;;;;12.07;60.40;96720.53;5036670;28;20197;-75
2021/03/25 10:04:41;;;;;;;16.80;6.78;;;;;;;12.19;59.65;96709.38;5036564;28;20201;-74
2021/03/25 10:07:42;;;;;;;15.40;6.82;;;;;;;12.27;59.05;96714.63;5037559;28;20279;-75
2021/03/25 10:10:33;;;;;;;15.95;7.82;;;;;;;12.49;58.77;96711.13;5039949;28;20648;-75
2021/03/25 10:13:36;;;;;;;14.13;6.57;;;;;;;12.56;60.03;96698.84;5040578;28;20267;-75
2021/03/25 10:16:05;;;;;;;15.15;7.57;;;;;;;12.78;59.48;96693.53;5039812;28;20231;-75
2021/03/25 10:18:55;;;;;;;16.50;7.53;;;;;;;13.06;59.82;96697.28;5040322;28;20579;-75
2021/03/25 10:22:03;;;;;;;14.07;7.22;;;;;;;13.26;60.06;96697.53;5040297;28;20243;-75
2021/03/25 10:24:33;;;;;;;17.50;7.97;;;;;;;13.29;58.06;96691.88;5040533;28;20680;-75
2021/03/25 10:27:11;;;;;;;17.52;7.65;;;;;;;13.23;57.53;96684.69;5039502;28;20411;-75
2021/03/25 10:29:38;;;;;;;19.75;7.70;;;;;;;13.24;57.93;96688.97;5040252;28;20215;-75
2021/03/25 10:32:13;;;;;;;16.08;7.53;;;;;;;13.52;57.06;96678.38;5040608;28;20300;-75
2021/03/25 10:34:42;;;;;;;18.77;8.35;;;;;;;13.82;57.98;96676.50;5040157;28;20415;-75
2021/03/25 10:37:25;;;;;;;17.27;7.88;;;;;;;13.89;57.69;96669.47;5039253;28;20225;-75
2021/03/25 10:39:59;;;;;;;14.65;7.00;;;;;;;14.26;56.16;96670.09;5040480;28;21191;-75
2021/03/25 10:42:29;;;;;;;13.43;6.78;;;;;;;14.36;55.11;96665.31;5039716;28;20576;-75
2021/03/25 10:44:56;;;;;;;18.25;7.75;;;;;;;14.52;53.15;96673.78;5039931;28;20581;-75
2021/03/25 10:47:30;;;;;;;14.93;7.40;;;;;;;14.64;51.97;96665.13;5039243;28;20213;-75
2021/03/25 10:49:59;;;;;;;18.23;7.68;;;;;;;14.65;53.69;96669.44;5040334;28;20374;-75
2021/03/25 10:52:36;;;;;;;17.02;8.07;;;;;;;14.64;54.22;96662.47;5039577;28;20216;-75
2021/03/25 10:55:06;;;;;;;18.27;7.43;;;;;;;14.80;51.45;96656.91;5038854;28;20200;-75
2021/03/25 10:57:34;;;;;;;19.80;7.80;;;;;;;14.95;52.54;96654.97;5039643;28;20193;-75
2021/03/25 11:00:05;;;;;;;16.38;6.88;;;;;;;15.24;51.45;96657.44;5038670;28;20263;-74
2021/03/25 11:02:38;;;;;;;13.85;7.32;;;;;;;15.14;49.28;96662.25;5038430;28;20395;-74
2021/03/25 11:05:08;;;;;;;14.10;7.25;;;;;;;15.63;51.30;96652.31;5038939;28;20201;-75
2021/03/25 11:07:41;;;;;;;13.25;7.10;;;;;;;15.88;48.50;96652.44;5038484;28;20205;-76
2021/03/25 11:10:19;;;;;;;14.52;6.90;;;;;;;16.08;46.60;96641.88;5038492;28;20279;-75
2021/03/25 11:12:54;;;;;;;14.73;6.70;;;;;;;16.20;44.80;96643.72;5039350;28;20205;-75
2021/03/25 11:15:24;;;;;;;15.77;6.43;;;;;;;15.75;46.08;96645.44;5037950;28;20225;-75
2021/03/25 11:17:52;;;;;;;14.95;6.65;;;;;;;15.60;46.74;96636.78;5038443;28;20209;-76
2021/03/25 11:20:21;;;;;;;15.68;6.70;;;;;;;15.68;46.61;96641.94;5038479;28;20296;-75
2021/03/25 11:22:49;;;;;;;15.30;6.53;;;;;;;15.91;46.15;96635.25;5038381;28;20652;-74
2021/03/25 11:25:22;;;;;;;15.85;6.72;;;;;;;16.16;44.62;96631.03;5037572;28;21063;-75
2021/03/25 11:27:50;;;;;;;13.88;6.30;;;;;;;16.28;45.89;96630.28;5038511;28;20673;-76
2021/03/25 11:30:28;;;;;;;12.70;6.03;;;;;;;16.28;44.23;96634.75;5038455;28;20205;-75
2021/03/25 11:32:54;;;;;;;15.00;5.70;;;;;;;16.49;43.70;96633.56;5038281;28;20197;-75
2021/03/25 11:35:30;;;;;;;10.43;5.28;;;;;;;16.20;42.20;96630.41;5037344;28;20217;-74
2021/03/25 11:37:56;;;;;;;12.73;5.72;;;;;;;16.16;43.35;96621.22;5038911;28;20267;-74
2021/03/25 11:40:26;;;;;;;14.25;5.97;;;;;;;16.15;43.26;96616.94;5038004;28;20197;-75
2021/03/25 11:43:06;;;;;;;10.63;5.35;;;;;;;16.29;42.72;96615.94;5038153;28;20263;-76
2021/03/25 11:45:35;;;;;;;9.25;4.07;;;;;;;16.13;41.00;96618.97;5037431;28;20247;-76
2021/03/25 11:48:02;;;;;;;11.57;5.88;;;;;;;16.15;43.55;96619.59;5038236;28;20201;-75
2021/03/25 11:50:34;;;;;;;11.52;6.00;;;;;;;16.15;43.25;96619.59;5037883;28;21150;-74
2021/03/25 11:53:03;;;;;;;11.85;5.82;;;;;;;15.93;45.80;96610.13;5037792;28;20229;-75